createdAt,value
2018-08-09T00:01:18.502Z,45.20
2018-08-09T00:03:47.088Z,45.30
2018-08-09T00:06:15.554Z,44.90
2018-08-09T00:08:44.057Z,44.80
2018-08-09T00:11:12.524Z,44.90
2018-08-09T00:13:41.058Z,44.80
2018-08-09T00:16:09.579Z,44.60
2018-08-09T00:18:38.026Z,44.60
2018-08-09T00:21:06.538Z,44.60
2018-08-09T00:23:35.011Z,44.40
2018-08-09T00:26:03.573Z,44.40
2018-08-09T00:28:32.083Z,44.80
2018-08-09T00:31:00.825Z,45.10
2018-08-09T00:33:29.329Z,44.80
2018-08-09T00:35:57.851Z,44.90
2018-08-09T00:38:26.314Z,44.60
2018-08-09T00:40:54.875Z,44.50
2018-08-09T00:43:23.365Z,44.60
2018-08-09T00:45:51.830Z,45.00
2018-08-09T00:48:20.339Z,44.50
2018-08-09T00:50:48.862Z,44.60
2018-08-09T00:53:17.351Z,44.50
2018-08-09T00:55:45.851Z,44.70
2018-08-09T00:58:14.392Z,44.90
2018-08-09T01:00:44.908Z,45.30
2018-08-09T01:03:13.424Z,44.80
2018-08-09T01:05:43.977Z,44.80
2018-08-09T01:08:12.518Z,45.10
2018-08-09T01:10:41.030Z,44.80
2018-08-09T01:13:09.548Z,44.60
2018-08-09T01:15:38.126Z,44.70
2018-08-09T01:18:08.134Z,44.60
2018-08-09T01:20:36.804Z,44.40
2018-08-09T01:23:05.288Z,44.30
2018-08-09T01:25:33.798Z,44.70
2018-08-09T01:28:02.278Z,44.60
2018-08-09T01:30:30.795Z,44.80
2018-08-09T01:32:59.311Z,44.50
2018-08-09T01:35:27.773Z,44.50
2018-08-09T01:37:56.314Z,44.70
2018-08-09T01:40:24.902Z,44.80
2018-08-09T01:43:05.478Z,44.80
2018-08-09T01:45:33.959Z,44.80
2018-08-09T01:48:02.523Z,44.80
2018-08-09T01:50:31.024Z,44.90
2018-08-09T01:52:59.520Z,44.90
2018-08-09T01:55:28.103Z,44.70
2018-08-09T01:57:56.603Z,44.90
2018-08-09T02:00:25.066Z,45.00
2018-08-09T02:02:53.591Z,44.60
2018-08-09T02:05:22.150Z,44.90
2018-08-09T02:07:50.646Z,44.60
2018-08-09T02:10:19.111Z,44.60
2018-08-09T02:12:47.606Z,45.10
2018-08-09T02:15:16.099Z,45.10
2018-08-09T02:17:44.595Z,45.10
2018-08-09T02:20:13.121Z,45.40
2018-08-09T02:22:41.751Z,45.40
2018-08-09T02:25:10.235Z,45.30
2018-08-09T02:27:38.716Z,45.00
2018-08-09T02:30:07.245Z,45.20
2018-08-09T02:32:35.831Z,45.40
2018-08-09T02:35:04.617Z,45.80
2018-08-09T02:37:33.189Z,46.10
2018-08-09T02:40:01.717Z,46.20
2018-08-09T02:42:30.227Z,46.40
2018-08-09T02:44:58.752Z,46.60
2018-08-09T02:47:28.267Z,46.80
2018-08-09T02:49:56.812Z,46.90
2018-08-09T02:52:25.304Z,47.10
2018-08-09T02:54:53.803Z,47.20
2018-08-09T02:57:22.332Z,47.40
2018-08-09T02:59:50.814Z,47.40
2018-08-09T03:02:19.483Z,47.80
2018-08-09T03:04:48.039Z,47.30
2018-08-09T03:07:16.611Z,47.50
2018-08-09T03:09:45.131Z,47.60
2018-08-09T03:12:13.687Z,48.00
2018-08-09T03:14:42.202Z,47.70
2018-08-09T03:17:10.784Z,47.80
2018-08-09T03:19:39.327Z,47.40
2018-08-09T03:22:07.862Z,46.80
2018-08-09T03:24:37.380Z,46.60
2018-08-09T03:27:06.090Z,46.30
2018-08-09T03:29:34.607Z,46.10
2018-08-09T03:32:03.127Z,45.40
2018-08-09T03:34:31.688Z,45.20
2018-08-09T03:37:00.289Z,45.10
2018-08-09T03:39:28.752Z,45.30
2018-08-09T03:41:57.254Z,45.70
2018-08-09T03:44:25.754Z,45.80
2018-08-09T03:46:54.238Z,45.70
2018-08-09T03:49:22.703Z,45.50
2018-08-09T03:51:51.205Z,45.70
2018-08-09T03:54:19.670Z,45.90
2018-08-09T03:56:48.175Z,46.10
2018-08-09T03:59:16.669Z,46.50
2018-08-09T04:01:45.221Z,46.80
2018-08-09T04:04:13.806Z,46.90
2018-08-09T04:06:42.283Z,46.50
2018-08-09T04:09:11.841Z,46.70
2018-08-09T04:11:40.832Z,46.50
2018-08-09T04:14:09.872Z,46.60
2018-08-09T04:16:39.139Z,46.50
2018-08-09T04:19:07.711Z,46.00
2018-08-09T04:21:36.235Z,46.00
2018-08-09T04:24:04.767Z,45.80
2018-08-09T04:26:33.407Z,45.10
2018-08-09T04:29:02.510Z,45.40
2018-08-09T04:31:30.976Z,45.30
2018-08-09T04:33:59.543Z,45.10
2018-08-09T04:36:28.054Z,45.10
2018-08-09T04:38:56.587Z,45.40
2018-08-09T04:41:25.130Z,46.00
2018-08-09T04:43:53.622Z,45.20
2018-08-09T04:46:22.120Z,44.90
2018-08-09T04:48:50.634Z,44.30
2018-08-09T04:51:19.120Z,44.10
2018-08-09T04:53:47.923Z,44.00
2018-08-09T04:56:16.543Z,43.60
2018-08-09T04:58:44.993Z,43.80
2018-08-09T05:01:13.452Z,43.70
2018-08-09T05:03:41.939Z,43.90
2018-08-09T05:06:10.459Z,44.40
2018-08-09T05:08:39.144Z,44.70
2018-08-09T05:11:07.771Z,44.70
2018-08-09T05:13:36.328Z,44.40
2018-08-09T05:16:04.815Z,44.60
2018-08-09T05:18:33.339Z,45.00
2018-08-09T05:21:01.811Z,45.40
2018-08-09T05:23:30.291Z,47.20
2018-08-09T05:25:58.851Z,46.50
2018-08-09T05:28:27.360Z,46.60
2018-08-09T05:30:55.907Z,45.70
2018-08-09T05:33:24.584Z,46.10
2018-08-09T05:35:53.100Z,46.50
2018-08-09T05:38:21.646Z,46.80
2018-08-09T05:40:50.152Z,46.20
2018-08-09T05:43:18.651Z,46.70
2018-08-09T05:45:47.222Z,46.20
2018-08-09T05:48:15.706Z,47.50
2018-08-09T05:50:44.242Z,46.50
2018-08-09T05:53:12.732Z,46.00
2018-08-09T05:55:41.244Z,45.40
2018-08-09T05:58:09.741Z,45.50
2018-08-09T06:00:38.848Z,44.80
2018-08-09T06:03:08.028Z,44.60
2018-08-09T06:05:36.571Z,44.40
2018-08-09T06:08:05.159Z,44.40
2018-08-09T06:10:34.710Z,43.70
2018-08-09T06:41:39.921Z,46.60
2018-08-09T06:44:09.965Z,46.20
2018-08-09T06:46:38.790Z,44.70
2018-08-09T06:49:07.311Z,43.50
2018-08-09T06:51:35.856Z,42.70
2018-08-09T06:54:04.720Z,43.00
2018-08-09T06:56:35.288Z,43.30
2018-08-09T06:59:05.000Z,42.90
2018-08-09T07:01:58.219Z,43.00
2018-08-09T07:04:26.987Z,43.00
2018-08-09T07:06:55.674Z,42.80
2018-08-09T07:09:24.295Z,42.90
2018-08-09T07:11:52.767Z,43.30
2018-08-09T07:14:21.259Z,43.10
2018-08-09T07:16:50.377Z,43.20
2018-08-09T07:19:18.832Z,43.20
2018-08-09T07:21:47.451Z,43.00
2018-08-09T07:24:16.014Z,42.50
2018-08-09T07:26:44.559Z,42.90
2018-08-09T07:29:13.051Z,42.80
2018-08-09T07:31:41.572Z,43.20
2018-08-09T07:34:10.207Z,43.70
2018-08-09T07:36:38.755Z,43.70
2018-08-09T07:39:09.352Z,43.80
2018-08-09T07:41:38.763Z,43.80
2018-08-09T07:44:07.365Z,43.60
2018-08-09T07:46:37.560Z,43.50
2018-08-09T07:49:07.387Z,43.60
2018-08-09T07:51:36.356Z,43.60
2018-08-09T07:54:05.297Z,43.60
2018-08-09T07:56:33.977Z,44.00
2018-08-09T07:59:02.969Z,44.30
2018-08-09T08:01:31.572Z,44.40
2018-08-09T08:04:00.208Z,44.40
2018-08-09T08:06:31.555Z,44.30
2018-08-09T08:09:00.095Z,43.60
2018-08-09T08:11:31.664Z,43.60
2018-08-09T08:14:02.433Z,43.30
2018-08-09T08:16:31.099Z,43.50
2018-08-09T08:18:59.610Z,44.10
2018-08-09T08:21:28.130Z,43.80
2018-08-09T08:23:56.891Z,44.10
2018-08-09T08:26:25.447Z,44.00
2018-08-09T08:28:54.009Z,43.70
2018-08-09T08:31:22.607Z,43.40
2018-08-09T08:36:32.602Z,43.90
2018-08-09T08:39:02.721Z,44.10
2018-08-09T08:41:35.332Z,43.90
2018-08-09T08:44:12.496Z,43.20
2018-08-09T08:46:42.704Z,43.00
2018-08-09T08:49:11.343Z,43.00
2018-08-09T08:51:39.859Z,42.60
2018-08-09T08:54:08.515Z,42.20
2018-08-09T08:56:37.076Z,42.50
2018-08-09T08:59:05.618Z,42.50
2018-08-09T09:01:34.199Z,43.10
2018-08-09T09:04:02.730Z,42.50
2018-08-09T09:06:32.318Z,42.50
2018-08-09T09:09:00.865Z,42.60
2018-08-09T09:11:36.182Z,42.80
2018-08-09T09:14:04.954Z,42.10
2018-08-09T09:16:33.668Z,42.00
2018-08-09T09:19:02.257Z,42.50
2018-08-09T09:21:30.852Z,42.50
2018-08-09T09:23:59.382Z,42.50
2018-08-09T09:26:27.981Z,42.60
2018-08-09T09:28:56.573Z,42.40
2018-08-09T09:31:25.106Z,42.30
2018-08-09T09:33:53.650Z,41.90
2018-08-09T09:36:22.232Z,42.10
2018-08-09T09:38:50.802Z,41.90
2018-08-09T09:41:19.256Z,42.10
2018-08-09T09:43:47.780Z,41.80
2018-08-09T09:46:16.339Z,41.80
2018-08-09T09:48:44.807Z,41.60
2018-08-09T09:51:13.170Z,41.50
2018-08-09T09:53:41.595Z,41.70
2018-08-09T09:56:10.096Z,42.00
2018-08-09T09:58:38.941Z,42.00
2018-08-09T10:01:12.815Z,42.10
2018-08-09T10:03:41.523Z,42.20
2018-08-09T10:06:10.101Z,41.90
2018-08-09T10:08:39.587Z,41.50
2018-08-09T10:11:09.120Z,41.50
2018-08-09T10:13:37.695Z,41.90
2018-08-09T10:16:06.241Z,41.20
2018-08-09T10:18:34.758Z,41.00
2018-08-09T10:21:03.355Z,40.90
2018-08-09T10:23:31.991Z,40.80
2018-08-09T10:26:00.595Z,40.90
2018-08-09T10:28:29.169Z,40.60
2018-08-09T10:30:57.763Z,40.20
2018-08-09T10:33:26.359Z,39.40
2018-08-09T10:35:54.843Z,39.40
2018-08-09T10:38:23.624Z,39.40
2018-08-09T10:40:52.114Z,39.00
2018-08-09T10:43:20.677Z,39.10
2018-08-09T10:45:49.308Z,39.00
2018-08-09T10:48:17.791Z,39.00
2018-08-09T10:50:46.263Z,39.00
2018-08-09T10:53:14.816Z,38.90
2018-08-09T10:55:43.720Z,38.60
2018-08-09T10:58:12.215Z,39.00
2018-08-09T11:00:41.076Z,39.30
2018-08-09T11:03:09.591Z,39.20
2018-08-09T11:05:40.281Z,38.80
2018-08-09T11:08:08.760Z,38.60
2018-08-09T11:10:37.353Z,38.40
2018-08-09T11:13:05.846Z,38.10
2018-08-09T11:15:34.403Z,37.60
2018-08-09T11:18:02.928Z,37.00
2018-08-09T11:20:31.383Z,37.00
2018-08-09T11:22:59.878Z,37.30
2018-08-09T11:25:28.416Z,37.50
2018-08-09T11:27:56.919Z,37.70
2018-08-09T11:30:25.523Z,37.50
2018-08-09T11:32:54.007Z,37.30
2018-08-09T11:35:22.498Z,37.20
2018-08-09T11:37:50.987Z,37.20
2018-08-09T11:40:19.498Z,36.70
2018-08-09T11:42:48.022Z,36.00
2018-08-09T11:45:16.579Z,35.70
2018-08-09T11:47:45.064Z,35.80
2018-08-09T11:50:13.571Z,36.10
2018-08-09T11:52:42.052Z,35.80
2018-08-09T11:55:10.667Z,35.90
2018-08-09T11:57:39.209Z,35.90
2018-08-09T12:00:08.188Z,35.70
2018-08-09T12:02:36.711Z,35.90
2018-08-09T12:05:05.271Z,35.60
2018-08-09T12:07:34.211Z,35.50
2018-08-09T12:10:02.690Z,36.00
2018-08-09T12:12:31.246Z,36.30
2018-08-09T12:14:59.766Z,36.60
2018-08-09T12:17:28.331Z,36.80
2018-08-09T12:19:56.898Z,37.20
2018-08-09T12:22:25.528Z,37.50
2018-08-09T12:24:55.419Z,37.70
2018-08-09T12:27:23.912Z,38.10
2018-08-09T12:29:52.494Z,38.30
2018-08-09T12:32:21.076Z,38.60
2018-08-09T12:34:49.569Z,38.60
2018-08-09T12:37:18.201Z,38.70
2018-08-09T12:39:46.824Z,38.60
2018-08-09T12:42:15.417Z,38.60
2018-08-09T12:44:44.194Z,39.00
2018-08-09T12:47:12.750Z,39.10
2018-08-09T12:49:41.301Z,39.30
2018-08-09T12:52:09.823Z,39.60
2018-08-09T12:54:38.387Z,39.50
2018-08-09T12:57:06.908Z,39.90
2018-08-09T12:59:35.944Z,39.70
2018-08-09T13:02:04.535Z,39.60
2018-08-09T13:04:33.088Z,38.90
2018-08-09T13:07:01.662Z,38.80
2018-08-09T13:09:31.407Z,38.10
2018-08-09T13:11:59.951Z,38.30
2018-08-09T13:14:28.550Z,40.00
2018-08-09T13:16:57.144Z,42.50
2018-08-09T13:19:25.642Z,44.30
2018-08-09T13:21:54.198Z,45.70
2018-08-09T13:24:22.806Z,46.80
2018-08-09T13:26:51.346Z,47.20
2018-08-09T13:29:19.927Z,47.80
2018-08-09T13:31:48.479Z,48.60
2018-08-09T13:34:17.044Z,49.30
2018-08-09T13:36:45.634Z,50.10
2018-08-09T13:39:14.352Z,50.70
2018-08-09T13:41:44.290Z,51.60
2018-08-09T13:44:13.167Z,52.00
2018-08-09T13:46:42.210Z,52.80
2018-08-09T13:49:10.811Z,52.90
2018-08-09T13:51:39.701Z,53.30
2018-08-09T13:54:08.458Z,53.00
2018-08-09T13:56:37.020Z,53.60
2018-08-09T13:59:05.571Z,53.70
2018-08-09T14:01:34.063Z,53.50
2018-08-09T14:04:02.692Z,53.10
2018-08-09T14:06:31.780Z,53.30
2018-08-09T14:09:00.252Z,53.20
2018-08-09T14:11:28.802Z,53.50
2018-08-09T14:13:57.348Z,53.40
2018-08-09T14:24:58.050Z,54.20
2018-08-09T14:27:26.514Z,54.10
2018-08-09T14:29:55.194Z,53.90
2018-08-09T14:32:23.764Z,53.40
2018-08-09T14:34:52.263Z,52.70
2018-08-09T14:37:20.812Z,52.40
2018-08-09T14:39:49.311Z,51.90
2018-08-09T15:07:51.323Z,52.20
2018-08-09T15:10:19.891Z,52.30
2018-08-09T15:12:48.505Z,52.50
2018-08-09T15:15:17.001Z,52.60
2018-08-09T15:17:45.598Z,52.60
2018-08-09T15:20:14.668Z,52.70
2018-08-09T15:22:43.302Z,52.80
2018-08-09T15:25:12.163Z,52.70
2018-08-09T15:27:40.870Z,53.00
2018-08-09T15:30:17.861Z,53.40
2018-08-09T15:32:47.979Z,53.50
2018-08-09T15:35:16.648Z,53.40
2018-08-09T15:37:45.615Z,53.50
2018-08-09T15:40:15.547Z,53.50
2018-08-09T15:42:44.115Z,53.70
2018-08-09T15:45:14.063Z,53.80
2018-08-09T15:47:42.893Z,54.10
2018-08-09T15:50:14.295Z,54.20
2018-08-09T15:52:43.062Z,54.50
2018-08-09T15:55:12.008Z,54.40
2018-08-09T15:57:40.614Z,54.70
2018-08-09T16:00:21.877Z,54.90
2018-08-09T16:02:50.521Z,55.10
2018-08-09T16:05:19.154Z,55.00
2018-08-09T16:07:47.835Z,54.80
2018-08-09T16:10:17.320Z,54.70
2018-08-09T16:12:46.185Z,54.40
2018-08-09T16:15:16.101Z,55.20
2018-08-09T16:17:45.521Z,54.40
2018-08-09T16:20:14.148Z,54.20
2018-08-09T16:22:43.631Z,54.50
2018-08-09T16:28:06.024Z,54.70
2018-08-09T16:30:34.674Z,54.80
2018-08-09T16:33:03.204Z,54.90
2018-08-09T16:35:31.829Z,55.20
2018-08-09T16:38:01.369Z,55.40
2018-08-09T16:40:30.096Z,55.30
2018-08-09T16:42:58.655Z,55.50
2018-08-09T16:45:39.047Z,55.50
2018-08-09T16:48:07.554Z,55.60
2018-08-09T16:50:36.058Z,55.70
2018-08-09T16:53:04.715Z,55.80
2018-08-09T16:55:33.216Z,55.70
2018-08-09T16:58:01.712Z,55.70
2018-08-09T17:00:30.229Z,55.50
2018-08-09T17:02:58.770Z,55.20
2018-08-09T17:05:28.104Z,55.10
2018-08-09T17:07:56.915Z,54.90
2018-08-09T17:10:26.374Z,54.30
2018-08-09T17:12:55.024Z,54.40
2018-08-09T17:15:25.675Z,54.40
2018-08-09T17:17:58.310Z,54.40
2018-08-09T17:20:31.135Z,54.30
2018-08-09T17:23:00.773Z,54.00
2018-08-09T17:25:30.326Z,54.10
2018-08-09T17:27:58.936Z,52.70
2018-08-09T17:30:28.424Z,49.00
2018-08-09T17:32:57.894Z,47.00
2018-08-09T17:35:26.542Z,46.90
2018-08-09T17:37:55.899Z,46.60
2018-08-09T17:40:26.747Z,46.60
2018-08-09T17:42:56.260Z,46.50
2018-08-09T17:45:36.392Z,46.00
2018-08-09T17:48:05.550Z,45.80
2018-08-09T17:50:34.090Z,45.90
2018-08-09T17:53:03.494Z,45.40
2018-08-09T17:55:32.663Z,45.30
2018-08-09T17:58:01.326Z,45.20
2018-08-09T18:00:31.425Z,45.30
2018-08-09T18:03:00.032Z,45.20
2018-08-09T18:05:28.933Z,45.30
2018-08-09T18:07:58.821Z,46.00
2018-08-09T18:10:30.441Z,45.50
2018-08-09T18:13:00.459Z,45.60
2018-08-09T18:15:30.061Z,45.90
2018-08-09T18:17:59.466Z,46.30
2018-08-09T18:20:29.927Z,46.80
2018-08-09T18:22:58.671Z,47.10
2018-08-09T18:25:27.514Z,47.30
2018-08-09T18:27:56.155Z,47.70
2018-08-09T18:30:24.730Z,48.00
2018-08-09T18:32:53.364Z,47.40
2018-08-09T18:35:21.884Z,47.10
2018-08-09T18:37:50.508Z,46.80
2018-08-09T18:40:21.047Z,46.60
2018-08-09T18:42:49.692Z,46.80
2018-08-09T18:45:18.640Z,46.50
2018-08-09T18:47:47.275Z,46.80
2018-08-09T18:50:18.784Z,47.00
2018-08-09T18:52:47.448Z,47.40
2018-08-09T18:55:17.205Z,47.70
2018-08-09T18:57:45.794Z,48.60
2018-08-09T19:00:27.084Z,47.90
2018-08-09T19:02:56.005Z,48.20
2018-08-09T19:05:24.819Z,48.60
2018-08-09T19:07:53.443Z,48.90
2018-08-09T19:10:26.397Z,49.00
2018-08-09T19:12:54.956Z,49.20
2018-08-09T19:15:24.619Z,49.80
2018-08-09T19:17:53.447Z,50.00
2018-08-09T19:20:28.476Z,50.10
2018-08-09T19:22:57.314Z,49.90
2018-08-09T19:25:25.911Z,49.70
2018-08-09T19:27:54.607Z,49.30
2018-08-09T19:30:25.750Z,49.30
2018-08-09T19:32:54.351Z,49.10
2018-08-09T19:35:24.017Z,49.00
2018-08-09T19:37:52.634Z,48.50
2018-08-09T19:40:25.919Z,48.60
2018-08-09T19:42:54.548Z,47.90
2018-08-09T19:45:24.055Z,47.80
2018-08-09T19:47:55.464Z,47.60
2018-08-09T19:50:24.825Z,47.50
2018-08-09T19:52:54.200Z,47.70
2018-08-09T19:55:26.815Z,47.60
2018-08-09T19:57:56.135Z,47.50
2018-08-09T20:00:29.622Z,47.20
2018-08-09T20:03:01.818Z,47.20
2018-08-09T20:05:31.420Z,47.30
2018-08-09T20:08:01.125Z,47.40
2018-08-09T20:10:34.319Z,47.50
2018-08-09T20:13:02.982Z,47.50
2018-08-09T20:15:31.632Z,47.60
2018-08-09T20:18:00.279Z,47.60
2018-08-09T20:20:28.940Z,47.70
2018-08-09T20:22:57.698Z,47.90
2018-08-09T20:25:26.414Z,47.90
2018-08-09T20:27:55.833Z,48.00
2018-08-09T20:30:24.450Z,48.10
2018-08-09T20:32:53.035Z,48.20
2018-08-09T20:35:23.347Z,48.50
2018-08-09T20:37:52.862Z,48.70
2018-08-09T20:40:22.588Z,48.90
2018-08-09T20:42:52.162Z,49.10
2018-08-09T20:45:26.168Z,49.20
2018-08-09T20:47:55.568Z,49.30
2018-08-09T20:50:25.949Z,49.40
2018-08-09T20:52:57.967Z,49.80
2018-08-09T20:55:27.978Z,50.00
2018-08-09T20:57:57.743Z,49.70
2018-08-09T21:00:30.851Z,49.80
2018-08-09T21:03:02.760Z,49.60
2018-08-09T21:05:42.710Z,49.40
2018-08-09T21:08:11.521Z,49.10
2018-08-09T21:10:40.563Z,49.10
2018-08-09T21:13:10.034Z,48.80
2018-08-09T21:15:38.620Z,48.40
2018-08-09T21:18:07.462Z,48.50
2018-08-09T21:20:35.926Z,48.60
2018-08-09T21:23:04.467Z,48.70
2018-08-09T21:25:33.118Z,48.60
2018-08-09T21:28:01.604Z,48.80
2018-08-09T21:30:30.136Z,49.10
2018-08-09T21:32:58.747Z,49.30
2018-08-09T21:35:27.351Z,49.50
2018-08-09T21:37:55.931Z,49.50
2018-08-09T21:40:24.428Z,49.10
2018-08-09T21:42:53.034Z,48.80
2018-08-09T21:45:22.710Z,49.10
2018-08-09T21:47:51.218Z,49.10
2018-08-09T21:50:21.084Z,48.90
2018-08-09T21:52:49.763Z,48.80
2018-08-09T21:55:19.323Z,48.80
2018-08-09T21:57:48.179Z,48.70
2018-08-09T22:00:31.789Z,48.70
2018-08-09T22:03:00.318Z,48.50
2018-08-09T22:07:40.092Z,48.40
2018-08-09T22:10:14.952Z,48.30
2018-08-09T22:12:48.684Z,48.70
2018-08-09T22:15:22.470Z,48.50
2018-08-09T22:17:56.316Z,48.60
2018-08-09T22:20:30.189Z,48.90
2018-08-09T22:22:58.711Z,49.20
2018-08-09T22:25:27.243Z,49.30
2018-08-09T22:27:55.770Z,49.30
2018-08-09T22:30:24.259Z,49.50
2018-08-09T22:32:53.702Z,49.70
2018-08-09T22:35:22.430Z,49.80
2018-08-09T22:37:52.049Z,50.20
2018-08-09T22:40:20.495Z,49.30
2018-08-09T22:42:49.037Z,49.40
2018-08-09T22:45:17.570Z,49.20
2018-08-09T22:47:46.199Z,49.10
2018-08-09T22:50:14.794Z,49.20
2018-08-09T22:52:43.311Z,49.20
2018-08-09T22:55:11.841Z,49.50
2018-08-09T22:57:40.423Z,49.50
2018-08-09T23:00:22.396Z,49.50
2018-08-09T23:02:51.259Z,49.70
2018-08-09T23:05:20.848Z,49.70
2018-08-09T23:07:49.977Z,50.00
2018-08-09T23:10:18.607Z,49.40
2018-08-09T23:12:47.184Z,49.50
2018-08-09T23:15:15.862Z,49.50
2018-08-09T23:17:45.064Z,49.60
2018-08-09T23:20:13.651Z,49.70
2018-08-09T23:22:42.267Z,49.50
2018-08-09T23:25:13.590Z,49.90
2018-08-09T23:27:42.852Z,49.70
2018-08-09T23:30:12.071Z,49.70
2018-08-09T23:32:53.865Z,50.10
2018-08-09T23:35:22.347Z,51.60
2018-08-09T23:37:51.434Z,52.90
2018-08-09T23:40:19.985Z,53.90
2018-08-09T23:42:48.551Z,54.60
2018-08-09T23:45:18.115Z,54.10
2018-08-09T23:47:46.951Z,55.00
2018-08-09T23:50:15.489Z,55.50
2018-08-09T23:52:44.066Z,55.60
2018-08-09T23:55:15.855Z,54.80
2018-08-09T23:57:44.410Z,54.70
